createdAt,value
2023-01-13T00:01:08.234Z,1.80
2023-01-13T00:03:35.207Z,1.83
2023-01-13T00:06:01.981Z,2.22
2023-01-13T00:08:28.347Z,3.00
2023-01-13T00:10:54.683Z,3.50
2023-01-13T00:13:26.435Z,2.47
2023-01-13T00:16:03.271Z,2.47
2023-01-13T00:18:29.835Z,2.45
2023-01-13T00:21:03.385Z,2.40
2023-01-13T00:23:31.563Z,2.63
2023-01-13T00:25:59.974Z,3.80
2023-01-13T00:28:26.736Z,1.90
2023-01-13T00:30:53.165Z,2.30
2023-01-13T00:33:19.756Z,2.72
2023-01-13T00:35:56.385Z,2.13
2023-01-13T00:38:22.707Z,2.60
2023-01-13T00:41:07.283Z,2.93
2023-01-13T00:43:35.567Z,2.00
2023-01-13T00:46:02.956Z,2.47
2023-01-13T00:48:30.435Z,2.75
2023-01-13T00:51:00.856Z,2.47
2023-01-13T00:53:28.562Z,2.70
2023-01-13T00:56:05.681Z,3.28
2023-01-13T00:58:33.832Z,2.15
2023-01-13T01:01:05.668Z,2.10
2023-01-13T01:03:32.400Z,2.47
2023-01-13T01:06:06.013Z,2.67
2023-01-13T01:08:32.773Z,2.20
2023-01-13T01:11:03.757Z,2.35
2023-01-13T01:13:30.317Z,2.35
2023-01-13T01:15:56.649Z,2.15
2023-01-13T01:18:23.035Z,1.80
2023-01-13T01:20:49.400Z,2.80
2023-01-13T01:23:15.764Z,1.67
2023-01-13T01:25:42.101Z,2.50
2023-01-13T01:28:08.484Z,2.47
2023-01-13T01:30:34.843Z,2.33
2023-01-13T01:33:03.095Z,2.65
2023-01-13T01:35:29.425Z,2.33
2023-01-13T01:37:55.822Z,2.40
2023-01-13T01:40:22.212Z,2.30
2023-01-13T01:43:07.345Z,3.03
2023-01-13T01:45:33.815Z,2.50
2023-01-13T01:48:03.537Z,2.35
2023-01-13T01:50:31.331Z,2.25
2023-01-13T01:53:05.227Z,2.92
2023-01-13T01:55:36.817Z,3.00
2023-01-13T01:58:32.241Z,2.22
2023-01-13T02:00:59.373Z,1.90
2023-01-13T02:03:25.911Z,2.42
2023-01-13T02:05:52.521Z,3.45
2023-01-13T02:08:19.537Z,2.27
2023-01-13T02:10:53.027Z,2.78
2023-01-13T02:13:22.440Z,3.03
2023-01-13T02:16:04.548Z,3.15
2023-01-13T02:19:05.481Z,2.50
2023-01-13T02:22:05.838Z,3.23
2023-01-13T02:25:05.726Z,2.95
2023-01-13T02:27:54.447Z,2.65
2023-01-13T02:31:07.771Z,3.38
2023-01-13T02:33:59.036Z,3.00
2023-01-13T02:36:49.008Z,2.57
2023-01-13T02:39:42.954Z,2.38
2023-01-13T02:42:32.674Z,2.67
2023-01-13T02:45:08.991Z,2.30
2023-01-13T02:47:39.281Z,2.13
2023-01-13T02:50:12.797Z,2.97
2023-01-13T02:52:47.939Z,3.28
2023-01-13T02:55:30.858Z,2.13
2023-01-13T02:58:00.539Z,2.53
2023-01-13T03:00:27.953Z,2.88
2023-01-13T03:02:54.419Z,2.77
2023-01-13T03:05:20.805Z,3.45
2023-01-13T03:08:08.776Z,2.90
2023-01-13T03:10:41.232Z,3.58
2023-01-13T03:13:27.191Z,2.58
2023-01-13T03:16:17.138Z,2.20
2023-01-13T03:18:58.537Z,3.83
2023-01-13T03:21:34.315Z,2.42
2023-01-13T03:24:09.267Z,3.55
2023-01-13T03:26:35.630Z,2.90
2023-01-13T03:29:10.782Z,2.67
2023-01-13T03:31:48.117Z,2.97
2023-01-13T03:34:21.914Z,2.65
2023-01-13T03:36:54.078Z,2.63
2023-01-13T03:39:27.759Z,2.75
2023-01-13T03:41:59.952Z,2.07
2023-01-13T03:44:34.347Z,3.15
2023-01-13T03:47:26.760Z,2.55
2023-01-13T03:49:56.090Z,2.88
2023-01-13T03:52:28.223Z,2.03
2023-01-13T03:55:06.780Z,2.07
2023-01-13T03:57:39.590Z,2.83
2023-01-13T04:00:10.292Z,2.38
2023-01-13T04:02:46.723Z,2.40
2023-01-13T04:05:14.182Z,2.20
2023-01-13T04:07:52.972Z,1.33
2023-01-13T04:10:33.602Z,1.90
2023-01-13T04:13:07.206Z,1.92
2023-01-13T04:15:37.544Z,1.85
2023-01-13T04:18:31.622Z,1.27
2023-01-13T04:21:00.825Z,1.70
2023-01-13T04:23:28.065Z,1.20
2023-01-13T04:25:54.645Z,1.60
2023-01-13T04:28:21.449Z,1.45
2023-01-13T04:30:48.327Z,1.40
2023-01-13T04:33:15.843Z,1.53
2023-01-13T04:35:42.326Z,2.13
2023-01-13T04:38:11.480Z,1.67
2023-01-13T04:40:38.559Z,1.38
2023-01-13T04:43:05.077Z,1.20
2023-01-13T04:45:31.803Z,1.20
2023-01-13T04:47:58.383Z,1.38
2023-01-13T04:50:24.814Z,1.15
2023-01-13T04:52:52.411Z,0.80
2023-01-13T04:55:20.882Z,1.15
2023-01-13T04:57:47.260Z,0.87
2023-01-13T05:00:19.148Z,1.30
2023-01-13T05:02:45.530Z,1.25
2023-01-13T05:05:12.215Z,0.60
2023-01-13T05:07:38.609Z,1.00
2023-01-13T05:10:05.468Z,0.70
2023-01-13T05:12:50.312Z,1.30
2023-01-13T05:15:35.460Z,0.50
2023-01-13T05:18:02.488Z,1.02
2023-01-13T05:20:28.965Z,1.20
2023-01-13T05:23:14.096Z,0.73
2023-01-13T05:25:44.203Z,0.63
2023-01-13T05:28:10.785Z,1.15
2023-01-13T05:30:42.671Z,1.25
2023-01-13T05:33:13.859Z,0.77
2023-01-13T05:35:44.992Z,0.83
2023-01-13T05:38:12.271Z,1.27
2023-01-13T05:40:59.454Z,1.15
2023-01-13T05:43:26.820Z,0.60
2023-01-13T05:46:00.692Z,1.15
2023-01-13T05:48:32.781Z,1.37
2023-01-13T05:51:00.206Z,1.65
2023-01-13T05:53:27.260Z,1.23
2023-01-13T05:55:54.130Z,1.83
2023-01-13T05:58:23.181Z,1.33
2023-01-13T06:00:50.142Z,1.43
2023-01-13T06:03:17.006Z,2.20
2023-01-13T06:05:43.706Z,0.98
2023-01-13T06:08:10.083Z,1.15
2023-01-13T06:10:36.837Z,1.00
2023-01-13T06:13:04.337Z,1.20
2023-01-13T06:15:31.672Z,1.10
2023-01-13T06:17:58.219Z,1.45
2023-01-13T06:20:25.351Z,1.35
2023-01-13T06:22:53.326Z,1.75
2023-01-13T06:25:48.912Z,2.03
2023-01-13T06:28:15.485Z,1.13
2023-01-13T06:30:47.882Z,1.13
2023-01-13T06:33:19.169Z,1.98
2023-01-13T06:35:51.999Z,1.50
2023-01-13T06:38:21.581Z,1.77
2023-01-13T06:40:48.267Z,1.20
2023-01-13T06:43:16.350Z,1.50
2023-01-13T06:45:44.558Z,1.58
2023-01-13T06:48:10.953Z,2.08
2023-01-13T06:50:37.411Z,2.10
2023-01-13T06:53:04.056Z,2.30
2023-01-13T06:55:30.463Z,1.67
2023-01-13T06:57:58.009Z,1.45
2023-01-13T07:00:26.458Z,1.77
2023-01-13T07:02:53.586Z,1.70
2023-01-13T07:05:21.085Z,1.60
2023-01-13T07:07:47.643Z,1.85
2023-01-13T07:10:22.187Z,1.50
2023-01-13T07:13:08.366Z,1.38
2023-01-13T07:15:35.067Z,2.70
2023-01-13T07:18:02.327Z,1.67
2023-01-13T07:20:30.043Z,1.38
2023-01-13T07:22:57.351Z,1.70
2023-01-13T07:25:24.419Z,1.58
2023-01-13T07:27:50.789Z,1.30
2023-01-13T07:30:17.471Z,1.88
2023-01-13T07:32:43.818Z,2.40
2023-01-13T07:35:10.215Z,2.60
2023-01-13T07:37:38.032Z,1.52
2023-01-13T07:40:05.013Z,1.93
2023-01-13T07:42:49.833Z,2.03
2023-01-13T07:45:16.202Z,1.88
2023-01-13T07:47:42.569Z,1.60
2023-01-13T07:50:09.838Z,2.75
2023-01-13T07:52:36.198Z,2.23
2023-01-13T07:55:02.644Z,1.40
2023-01-13T07:57:29.927Z,1.70
2023-01-13T07:59:56.372Z,1.85
2023-01-13T08:02:23.110Z,3.17
2023-01-13T08:04:49.692Z,1.60
2023-01-13T08:07:16.134Z,3.03
2023-01-13T08:09:42.539Z,2.03
2023-01-13T08:12:27.538Z,1.70
2023-01-13T08:14:54.167Z,1.75
2023-01-13T08:17:20.882Z,1.87
2023-01-13T08:19:47.476Z,2.08
2023-01-13T08:22:13.877Z,2.40
2023-01-13T08:24:40.334Z,2.30
2023-01-13T08:27:06.786Z,2.25
2023-01-13T08:29:33.193Z,1.97
2023-01-13T08:31:59.533Z,2.25
2023-01-13T08:34:25.938Z,2.42
2023-01-13T08:36:52.403Z,1.58
2023-01-13T08:39:18.886Z,2.33
2023-01-13T08:41:58.472Z,1.93
2023-01-13T08:44:30.145Z,2.58
2023-01-13T08:46:57.069Z,1.70
2023-01-13T08:49:24.637Z,1.98
2023-01-13T08:51:52.063Z,1.88
2023-01-13T08:54:19.591Z,1.90
2023-01-13T08:56:47.110Z,1.83
2023-01-13T08:59:18.999Z,2.10
2023-01-13T09:01:45.949Z,2.28
2023-01-13T09:04:17.503Z,1.70
2023-01-13T09:06:44.182Z,1.87
2023-01-13T09:09:10.575Z,1.85
2023-01-13T09:12:00.734Z,1.45
2023-01-13T09:14:31.490Z,1.95
2023-01-13T09:16:58.649Z,2.00
2023-01-13T09:19:26.261Z,1.50
2023-01-13T09:21:53.049Z,2.15
2023-01-13T09:24:20.047Z,1.42
2023-01-13T09:26:46.754Z,1.77
2023-01-13T09:29:13.784Z,1.58
2023-01-13T09:31:43.876Z,2.00
2023-01-13T09:34:36.655Z,2.53
2023-01-13T09:37:04.692Z,1.48
2023-01-13T09:39:32.564Z,1.52
2023-01-13T09:42:23.222Z,1.52
2023-01-13T09:44:55.632Z,2.60
2023-01-13T09:47:45.029Z,2.00
2023-01-13T09:50:14.391Z,2.00
2023-01-13T09:52:43.040Z,2.40
2023-01-13T09:55:16.230Z,1.33
2023-01-13T09:57:42.799Z,1.73
2023-01-13T10:00:16.963Z,2.10
2023-01-13T10:03:17.318Z,1.67
2023-01-13T10:05:43.687Z,1.88
2023-01-13T10:08:22.235Z,1.70
2023-01-13T10:10:51.837Z,1.67
2023-01-13T10:13:22.719Z,2.90
2023-01-13T10:16:02.722Z,1.88
2023-01-13T10:18:54.677Z,1.10
2023-01-13T10:21:48.109Z,1.75
2023-01-13T10:24:26.438Z,2.10
2023-01-13T10:27:10.276Z,2.00
2023-01-13T10:29:36.999Z,1.95
2023-01-13T10:32:03.509Z,1.85
2023-01-13T10:34:30.149Z,2.13
2023-01-13T10:37:08.254Z,2.07
2023-01-13T10:39:43.969Z,1.92
2023-01-13T10:42:18.234Z,2.03
2023-01-13T10:44:55.196Z,2.80
2023-01-13T10:47:30.725Z,1.67
2023-01-13T10:50:05.645Z,1.70
2023-01-13T10:52:36.825Z,1.80
2023-01-13T10:55:05.930Z,2.13
2023-01-13T10:57:36.945Z,1.58
2023-01-13T11:00:05.295Z,2.00
2023-01-13T11:02:34.146Z,1.70
2023-01-13T11:05:20.961Z,1.67
2023-01-13T11:07:50.489Z,1.75
2023-01-13T11:10:27.220Z,1.50
2023-01-13T11:12:57.511Z,1.98
2023-01-13T11:15:36.420Z,1.90
2023-01-13T11:18:16.779Z,1.63
2023-01-13T11:20:45.321Z,1.90
2023-01-13T11:23:36.952Z,1.67
2023-01-13T11:26:21.050Z,1.67
2023-01-13T11:28:59.925Z,1.83
2023-01-13T11:31:29.284Z,1.77
2023-01-13T11:34:29.713Z,1.60
2023-01-13T11:36:59.066Z,1.42
2023-01-13T11:40:05.611Z,1.60
2023-01-13T11:42:36.716Z,1.30
2023-01-13T11:45:16.835Z,1.50
2023-01-13T11:47:51.032Z,1.08
2023-01-13T11:50:40.035Z,1.00
2023-01-13T11:53:32.281Z,1.35
2023-01-13T11:56:24.495Z,1.83
2023-01-13T11:59:03.034Z,1.00
2023-01-13T12:02:02.360Z,1.42
2023-01-13T12:05:13.496Z,1.85
2023-01-13T12:07:46.794Z,1.52
2023-01-13T12:10:29.867Z,0.90
2023-01-13T12:13:24.060Z,1.45
2023-01-13T12:16:16.063Z,1.73
2023-01-13T12:18:54.760Z,0.98
2023-01-13T12:21:26.841Z,1.27
2023-01-13T12:24:23.717Z,1.20
2023-01-13T12:26:55.628Z,2.20
2023-01-13T12:29:38.025Z,1.50
2023-01-13T12:32:16.377Z,1.40
2023-01-13T12:34:58.466Z,1.10
2023-01-13T12:37:37.157Z,1.37
2023-01-13T12:40:36.384Z,1.38
2023-01-13T12:43:36.198Z,1.05
2023-01-13T12:46:23.934Z,1.50
2023-01-13T12:48:55.159Z,0.85
2023-01-13T12:52:03.280Z,1.30
2023-01-13T12:54:41.466Z,1.23
2023-01-13T12:57:16.908Z,1.03
2023-01-13T12:59:48.804Z,0.85
2023-01-13T13:02:15.854Z,1.50
2023-01-13T13:04:49.773Z,1.88
2023-01-13T13:07:36.997Z,1.20
2023-01-13T13:10:29.549Z,1.40
2023-01-13T13:13:17.694Z,1.38
2023-01-13T13:15:46.423Z,1.08
2023-01-13T13:18:23.667Z,1.48
2023-01-13T13:20:54.549Z,0.85
2023-01-13T13:23:48.913Z,1.10
2023-01-13T13:26:25.413Z,0.95
2023-01-13T13:29:24.124Z,0.98
2023-01-13T13:32:26.777Z,1.55
2023-01-13T13:35:05.441Z,1.08
2023-01-13T13:38:12.318Z,0.93
2023-01-13T13:40:59.673Z,1.08
2023-01-13T13:43:53.969Z,0.75
2023-01-13T13:46:46.857Z,0.90
2023-01-13T13:49:22.242Z,1.00
2023-01-13T13:52:05.155Z,0.77
2023-01-13T13:54:32.493Z,0.90
2023-01-13T13:56:59.359Z,0.70
2023-01-13T13:59:30.501Z,0.80
2023-01-13T14:02:03.693Z,1.00
2023-01-13T14:04:36.836Z,1.30
2023-01-13T14:07:18.044Z,0.90
2023-01-13T14:09:47.505Z,1.58
2023-01-13T14:12:23.151Z,1.00
2023-01-13T14:14:50.617Z,1.27
2023-01-13T14:17:25.334Z,1.40
2023-01-13T14:19:59.140Z,1.08
2023-01-13T14:22:25.786Z,1.38
2023-01-13T14:24:58.481Z,1.33
2023-01-13T14:27:27.678Z,1.00
2023-01-13T14:29:56.456Z,1.07
2023-01-13T14:32:29.841Z,1.45
2023-01-13T14:34:56.241Z,0.77
2023-01-13T14:37:25.746Z,1.17
2023-01-13T14:39:52.158Z,0.90
2023-01-13T14:42:18.980Z,1.10
2023-01-13T14:44:47.455Z,0.95
2023-01-13T14:47:24.676Z,0.88
2023-01-13T14:50:03.120Z,1.20
2023-01-13T14:52:33.121Z,1.27
2023-01-13T14:55:10.047Z,1.07
2023-01-13T14:57:39.423Z,1.08
2023-01-13T15:00:20.441Z,1.25
2023-01-13T15:02:53.427Z,1.08
2023-01-13T15:05:19.880Z,1.05
2023-01-13T15:07:59.322Z,1.13
2023-01-13T15:10:29.211Z,1.23
2023-01-13T15:12:58.340Z,1.17
2023-01-13T15:15:26.936Z,1.52
2023-01-13T15:17:53.646Z,0.82
2023-01-13T15:20:22.302Z,0.97
2023-01-13T15:22:50.059Z,1.15
2023-01-13T15:25:17.355Z,1.10
2023-01-13T15:27:45.675Z,0.88
2023-01-13T15:30:26.611Z,1.13
2023-01-13T15:32:55.086Z,1.10
2023-01-13T15:35:23.519Z,0.90
2023-01-13T15:37:50.645Z,1.40
2023-01-13T15:40:29.036Z,1.00
2023-01-13T15:43:13.872Z,1.25
2023-01-13T15:45:59.763Z,1.17
2023-01-13T15:48:30.601Z,0.93
2023-01-13T15:50:56.967Z,1.25
2023-01-13T15:53:23.877Z,1.50
2023-01-13T15:55:53.645Z,1.17
2023-01-13T15:58:24.059Z,0.90
2023-01-13T16:00:50.541Z,1.45
2023-01-13T16:03:17.102Z,0.90
2023-01-13T16:05:44.777Z,1.00
2023-01-13T16:08:19.569Z,1.05
2023-01-13T16:10:46.581Z,1.27
2023-01-13T16:13:13.975Z,1.20
2023-01-13T16:15:46.945Z,1.10
2023-01-13T16:18:19.836Z,1.27
2023-01-13T16:20:47.327Z,1.10
2023-01-13T16:23:13.711Z,0.90
2023-01-13T16:25:43.003Z,1.40
2023-01-13T16:28:19.964Z,1.38
2023-01-13T16:30:46.351Z,1.00
2023-01-13T16:33:12.767Z,0.82
2023-01-13T16:36:09.055Z,2.07
2023-01-13T16:38:25.596Z,1.70
2023-01-13T16:40:52.341Z,1.80
2023-01-13T16:43:18.751Z,1.15
2023-01-13T16:45:45.186Z,1.38
2023-01-13T16:48:19.595Z,1.60
2023-01-13T16:50:46.485Z,1.05
2023-01-13T16:53:12.939Z,0.80
2023-01-13T16:55:40.844Z,0.90
2023-01-13T16:58:16.475Z,0.90
2023-01-13T17:00:43.305Z,1.10
2023-01-13T17:03:09.748Z,1.52
2023-01-13T17:05:40.629Z,1.33
2023-01-13T17:08:07.081Z,1.17
2023-01-13T17:10:33.443Z,0.60
2023-01-13T17:13:04.527Z,0.90
2023-01-13T17:15:39.949Z,0.85
2023-01-13T17:18:06.358Z,0.52
2023-01-13T17:20:32.791Z,0.47
2023-01-13T17:22:59.183Z,0.90
2023-01-13T17:25:25.567Z,0.97
2023-01-13T17:27:51.975Z,0.65
2023-01-13T17:30:19.249Z,0.63
2023-01-13T17:32:45.686Z,0.63
2023-01-13T17:35:14.155Z,0.63
2023-01-13T17:37:40.557Z,0.57
2023-01-13T17:40:07.649Z,0.30
2023-01-13T17:42:34.104Z,0.50
2023-01-13T17:45:00.507Z,0.50
2023-01-13T17:47:26.876Z,0.60
2023-01-13T17:49:53.195Z,0.30
2023-01-13T17:52:20.216Z,0.30
2023-01-13T17:54:46.562Z,0.50
2023-01-13T17:57:12.952Z,0.85
2023-01-13T17:59:41.366Z,0.75
2023-01-13T18:02:11.228Z,0.47
2023-01-13T18:04:37.684Z,0.60
2023-01-13T18:07:05.720Z,0.45
2023-01-13T18:09:33.087Z,0.88
2023-01-13T18:12:00.390Z,0.40
2023-01-13T18:14:26.787Z,0.50
2023-01-13T18:16:53.310Z,0.82
2023-01-13T18:19:38.502Z,0.90
2023-01-13T18:22:23.315Z,0.75
2023-01-13T18:25:08.201Z,1.13
2023-01-13T18:27:38.068Z,1.00
2023-01-13T18:30:06.490Z,0.65
2023-01-13T18:32:33.936Z,0.85
2023-01-13T18:35:06.029Z,0.90
2023-01-13T18:37:35.865Z,1.60
2023-01-13T18:40:02.982Z,0.90
2023-01-13T18:42:47.752Z,1.42
2023-01-13T18:45:14.221Z,0.95
2023-01-13T18:47:42.202Z,1.02
2023-01-13T18:50:09.660Z,1.42
2023-01-13T18:52:36.647Z,0.77
2023-01-13T18:55:03.693Z,0.57
2023-01-13T18:57:30.213Z,0.70
2023-01-13T18:59:57.499Z,1.13
2023-01-13T19:02:28.509Z,0.60
2023-01-13T19:04:55.154Z,0.80
2023-01-13T19:07:28.284Z,1.42
2023-01-13T19:09:55.748Z,0.55
2023-01-13T19:12:28.178Z,0.90
2023-01-13T19:14:55.308Z,0.73
2023-01-13T19:17:23.377Z,1.13
2023-01-13T19:19:54.904Z,0.90
2023-01-13T19:22:28.601Z,0.80
2023-01-13T19:24:55.427Z,0.63
2023-01-13T19:27:22.192Z,0.50
2023-01-13T19:29:52.550Z,0.77
2023-01-13T19:32:20.702Z,1.52
2023-01-13T19:34:49.365Z,1.05
2023-01-13T19:37:15.840Z,0.75
2023-01-13T19:39:42.439Z,1.10
2023-01-13T19:42:31.830Z,1.00
2023-01-13T19:45:16.554Z,0.82
2023-01-13T19:47:45.288Z,1.17
2023-01-13T19:50:13.551Z,0.60
2023-01-13T19:52:40.514Z,1.20
2023-01-13T19:55:07.163Z,0.90
2023-01-13T19:57:33.647Z,1.70
2023-01-13T20:00:00.006Z,1.20
2023-01-13T20:02:31.260Z,1.00
2023-01-13T20:05:01.897Z,1.67
2023-01-13T20:07:30.493Z,0.70
2023-01-13T20:09:57.540Z,0.70
2023-01-13T20:12:25.395Z,1.10
2023-01-13T20:14:52.038Z,0.98
2023-01-13T20:17:20.792Z,0.90
2023-01-13T20:19:47.254Z,0.90
2023-01-13T20:22:14.363Z,0.70
2023-01-13T20:24:40.867Z,0.80
2023-01-13T20:27:07.455Z,0.80
2023-01-13T20:29:34.400Z,0.82
2023-01-13T20:32:00.903Z,0.70
2023-01-13T20:34:27.423Z,0.63
2023-01-13T20:36:53.868Z,0.60
2023-01-13T20:39:22.727Z,0.57
2023-01-13T20:42:07.495Z,0.80
2023-01-13T20:44:34.028Z,0.40
2023-01-13T20:47:00.853Z,0.50
2023-01-13T20:49:27.739Z,1.13
2023-01-13T20:51:55.222Z,0.82
2023-01-13T20:54:21.998Z,1.10
2023-01-13T20:56:49.205Z,0.60
2023-01-13T20:59:15.791Z,0.77
2023-01-13T21:01:42.827Z,0.93
2023-01-13T21:04:09.642Z,0.82
2023-01-13T21:06:36.065Z,0.52
2023-01-13T21:09:02.599Z,1.97
2023-01-13T21:11:48.125Z,1.20
2023-01-13T21:14:37.353Z,0.77
2023-01-13T21:17:04.740Z,0.90
2023-01-13T21:19:31.398Z,0.80
2023-01-13T21:21:57.764Z,1.00
2023-01-13T21:24:25.327Z,1.63
2023-01-13T21:27:01.016Z,1.10
2023-01-13T21:29:27.375Z,1.02
2023-01-13T21:31:54.376Z,0.65
2023-01-13T21:34:20.768Z,1.30
2023-01-13T21:36:47.184Z,0.95
2023-01-13T21:39:15.381Z,1.83
2023-01-13T21:42:00.412Z,1.40
2023-01-13T21:44:45.187Z,1.48
2023-01-13T21:47:35.051Z,1.63
2023-01-13T21:50:02.223Z,1.10
2023-01-13T21:52:28.707Z,0.75
2023-01-13T21:55:13.991Z,1.00
2023-01-13T21:57:40.342Z,1.30
2023-01-13T22:00:07.383Z,0.70
2023-01-13T22:02:35.575Z,1.00
2023-01-13T22:05:03.957Z,1.38
2023-01-13T22:07:32.505Z,1.00
2023-01-13T22:09:59.042Z,1.33
2023-01-13T22:12:25.405Z,1.53
2023-01-13T22:14:52.093Z,1.27
2023-01-13T22:17:20.793Z,1.10
2023-01-13T22:19:48.135Z,1.05
2023-01-13T22:22:16.469Z,1.75
2023-01-13T22:24:43.566Z,0.90
2023-01-13T22:27:11.033Z,1.30
2023-01-13T22:29:37.805Z,1.30
2023-01-13T22:32:05.414Z,1.23
2023-01-13T22:34:32.561Z,1.42
2023-01-13T22:36:59.897Z,1.10
2023-01-13T22:39:26.767Z,1.38
2023-01-13T22:41:53.413Z,0.90
2023-01-13T22:44:20.483Z,1.23
2023-01-13T22:46:47.365Z,1.25
2023-01-13T22:49:15.169Z,1.20
2023-01-13T22:51:41.889Z,1.45
2023-01-13T22:54:08.943Z,1.02
2023-01-13T22:56:36.025Z,1.50
2023-01-13T22:59:04.126Z,0.63
2023-01-13T23:01:32.805Z,0.90
2023-01-13T23:03:59.821Z,1.35
2023-01-13T23:06:28.050Z,0.70
2023-01-13T23:08:54.715Z,1.20
2023-01-13T23:11:23.973Z,1.23
2023-01-13T23:13:50.953Z,0.77
2023-01-13T23:16:21.076Z,1.33
2023-01-13T23:18:48.516Z,0.90
2023-01-13T23:21:17.834Z,1.27
2023-01-13T23:23:45.005Z,0.88
2023-01-13T23:26:12.314Z,1.87
2023-01-13T23:28:39.104Z,1.75
2023-01-13T23:31:07.955Z,1.25
2023-01-13T23:33:35.073Z,0.90
2023-01-13T23:36:06.272Z,1.15
2023-01-13T23:38:32.625Z,1.17
2023-01-13T23:41:00.530Z,1.08
2023-01-13T23:43:27.254Z,1.10
2023-01-13T23:46:02.186Z,1.05
2023-01-13T23:48:28.839Z,1.10
2023-01-13T23:51:03.178Z,1.20
2023-01-13T23:53:35.236Z,1.67
2023-01-13T23:56:03.123Z,2.42
2023-01-13T23:58:29.903Z,1.10
